createdAt,value
2023-01-11T00:00:17.505Z,68.64
2023-01-11T00:01:17.826Z,65.10
2023-01-11T00:02:18.164Z,59.14
2023-01-11T00:03:18.408Z,51.72
2023-01-11T00:04:18.765Z,54.95
2023-01-11T00:05:18.989Z,50.43
2023-01-11T00:06:19.390Z,50.43
2023-01-11T00:07:19.562Z,49.15
2023-01-11T00:08:19.880Z,50.27
2023-01-11T00:09:20.180Z,50.11
2023-01-11T00:10:20.517Z,50.43
2023-01-11T00:11:20.728Z,54.30
2023-01-11T00:12:21.035Z,47.86
2023-01-11T00:13:21.407Z,59.14
2023-01-11T00:14:21.590Z,60.91
2023-01-11T00:15:21.962Z,50.60
2023-01-11T00:16:22.175Z,52.21
2023-01-11T00:17:22.363Z,48.02
2023-01-11T00:18:22.698Z,48.18
2023-01-11T00:19:22.963Z,48.82
2023-01-11T00:20:23.276Z,76.86
2023-01-11T00:21:23.471Z,51.56
2023-01-11T00:22:23.755Z,55.27
2023-01-11T00:23:24.080Z,53.98
2023-01-11T00:24:24.471Z,50.92
2023-01-11T00:25:24.661Z,51.72
2023-01-11T00:26:25.051Z,49.63
2023-01-11T00:27:25.324Z,48.34
2023-01-11T00:28:25.640Z,58.49
2023-01-11T00:29:25.966Z,53.50
2023-01-11T00:30:26.277Z,50.60
2023-01-11T00:31:26.612Z,51.56
2023-01-11T00:32:26.879Z,51.72
2023-01-11T00:33:27.172Z,59.30
2023-01-11T00:34:27.459Z,55.75
2023-01-11T00:35:27.889Z,51.08
2023-01-11T00:36:28.139Z,53.98
2023-01-11T00:37:28.389Z,60.26
2023-01-11T00:38:28.587Z,59.62
2023-01-11T00:39:28.771Z,52.85
2023-01-11T00:40:29.107Z,57.04
2023-01-11T00:41:29.384Z,51.08
2023-01-11T00:42:29.776Z,51.40
2023-01-11T00:43:29.968Z,54.14
2023-01-11T00:44:30.297Z,50.43
2023-01-11T00:45:30.591Z,54.14
2023-01-11T00:46:30.899Z,52.69
2023-01-11T00:47:31.238Z,53.01
2023-01-11T00:48:31.538Z,51.24
2023-01-11T00:49:31.869Z,47.86
2023-01-11T00:50:32.081Z,56.40
2023-01-11T00:51:32.381Z,48.50
2023-01-11T00:52:32.712Z,56.72
2023-01-11T00:53:33.021Z,53.33
2023-01-11T00:54:33.374Z,50.11
2023-01-11T00:55:33.535Z,56.56
2023-01-11T00:56:33.868Z,55.11
2023-01-11T00:57:34.167Z,67.84
2023-01-11T00:58:34.447Z,49.95
2023-01-11T00:59:34.747Z,48.66
2023-01-11T01:00:35.104Z,47.70
2023-01-11T01:01:35.404Z,65.42
2023-01-11T01:02:35.778Z,48.82
2023-01-11T01:03:36.017Z,50.11
2023-01-11T01:04:36.307Z,48.50
2023-01-11T01:05:36.614Z,47.37
2023-01-11T01:06:37.054Z,49.15
2023-01-11T01:07:37.200Z,47.86
2023-01-11T01:08:37.601Z,48.02
2023-01-11T01:09:37.804Z,47.86
2023-01-11T01:10:38.122Z,48.50
2023-01-11T01:11:38.498Z,48.34
2023-01-11T01:12:38.719Z,49.31
2023-01-11T01:13:38.984Z,49.15
2023-01-11T01:14:39.350Z,48.98
2023-01-11T01:15:39.647Z,51.88
2023-01-11T01:16:39.999Z,49.47
2023-01-11T01:17:40.413Z,51.56
2023-01-11T01:18:40.576Z,67.03
2023-01-11T01:19:40.868Z,48.98
2023-01-11T01:20:41.150Z,49.47
2023-01-11T01:21:41.431Z,76.70
2023-01-11T01:22:41.746Z,49.79
2023-01-11T01:23:42.049Z,48.18
2023-01-11T01:24:42.330Z,51.56
2023-01-11T01:25:42.701Z,48.18
2023-01-11T01:26:42.943Z,48.98
2023-01-11T01:27:43.246Z,49.47
2023-01-11T01:28:43.520Z,46.89
2023-01-11T01:29:43.817Z,47.05
2023-01-11T01:30:44.155Z,48.98
2023-01-11T01:31:44.371Z,59.46
2023-01-11T01:32:44.621Z,47.70
2023-01-11T01:33:44.913Z,48.66
2023-01-11T01:34:45.204Z,49.47
2023-01-11T01:35:45.506Z,49.79
2023-01-11T01:36:45.821Z,48.66
2023-01-11T01:37:46.150Z,50.92
2023-01-11T01:38:46.485Z,48.82
2023-01-11T01:39:46.773Z,55.75
2023-01-11T01:40:47.032Z,49.15
2023-01-11T01:41:47.336Z,48.50
2023-01-11T01:42:47.620Z,48.66
2023-01-11T01:43:47.911Z,48.82
2023-01-11T01:44:48.264Z,47.70
2023-01-11T01:45:48.509Z,51.56
2023-01-11T01:46:48.837Z,48.66
2023-01-11T01:47:49.172Z,52.21
2023-01-11T01:48:49.489Z,50.11
2023-01-11T01:49:49.857Z,49.47
2023-01-11T01:50:50.041Z,51.24
2023-01-11T01:51:50.319Z,56.24
2023-01-11T01:52:50.655Z,48.66
2023-01-11T01:53:50.907Z,51.24
2023-01-11T01:54:51.273Z,52.53
2023-01-11T01:55:51.583Z,49.31
2023-01-11T01:56:51.918Z,48.66
2023-01-11T01:57:52.196Z,57.52
2023-01-11T01:58:52.539Z,48.18
2023-01-11T01:59:52.813Z,51.72
2023-01-11T02:00:53.141Z,53.66
2023-01-11T02:01:53.497Z,48.98
2023-01-11T02:02:53.777Z,48.02
2023-01-11T02:03:53.977Z,47.70
2023-01-11T02:04:54.265Z,51.88
2023-01-11T02:05:54.572Z,48.82
2023-01-11T02:06:54.943Z,49.47
2023-01-11T02:07:55.104Z,49.15
2023-01-11T02:08:55.425Z,58.01
2023-01-11T02:09:55.741Z,48.66
2023-01-11T02:10:56.041Z,54.46
2023-01-11T02:11:56.360Z,59.94
2023-01-11T02:12:56.658Z,49.79
2023-01-11T02:13:56.928Z,52.05
2023-01-11T02:14:57.236Z,48.34
2023-01-11T02:15:57.515Z,50.11
2023-01-11T02:16:57.867Z,51.56
2023-01-11T02:17:58.043Z,49.79
2023-01-11T02:18:58.364Z,48.34
2023-01-11T02:19:58.660Z,48.50
2023-01-11T02:20:58.996Z,48.50
2023-01-11T02:21:59.282Z,49.95
2023-01-11T02:22:59.565Z,49.15
2023-01-11T02:23:59.842Z,48.98
2023-01-11T02:25:00.193Z,49.15
2023-01-11T02:26:00.469Z,52.37
2023-01-11T02:27:00.745Z,70.09
2023-01-11T02:28:01.011Z,48.34
2023-01-11T02:29:01.400Z,48.02
2023-01-11T02:30:01.694Z,51.08
2023-01-11T02:31:02.036Z,52.37
2023-01-11T02:32:02.341Z,55.75
2023-01-11T02:33:02.641Z,55.11
2023-01-11T02:34:02.938Z,48.66
2023-01-11T02:35:03.239Z,59.30
2023-01-11T02:36:03.438Z,53.82
2023-01-11T02:37:03.799Z,59.30
2023-01-11T02:38:04.070Z,50.76
2023-01-11T02:39:04.388Z,53.17
2023-01-11T02:40:04.740Z,48.66
2023-01-11T02:41:05.023Z,50.92
2023-01-11T02:42:05.288Z,51.08
2023-01-11T02:43:05.604Z,50.76
2023-01-11T02:44:05.896Z,59.14
2023-01-11T02:45:06.212Z,50.11
2023-01-11T02:46:06.563Z,54.46
2023-01-11T02:47:06.860Z,52.05
2023-01-11T02:48:07.129Z,49.15
2023-01-11T02:49:07.489Z,52.69
2023-01-11T02:50:07.768Z,56.07
2023-01-11T02:51:08.097Z,56.24
2023-01-11T02:52:08.394Z,56.56
2023-01-11T02:53:08.713Z,67.68
2023-01-11T02:54:09.036Z,51.40
2023-01-11T02:55:09.343Z,50.76
2023-01-11T02:56:10.600Z,50.43
2023-01-11T02:57:09.894Z,51.24
2023-01-11T02:58:10.199Z,51.08
2023-01-11T02:59:10.554Z,58.01
2023-01-11T03:00:10.810Z,56.72
2023-01-11T03:01:11.168Z,54.62
2023-01-11T03:02:11.405Z,70.58
2023-01-11T03:03:11.696Z,53.82
2023-01-11T03:04:12.033Z,56.72
2023-01-11T03:05:12.376Z,64.61
2023-01-11T03:06:12.612Z,51.08
2023-01-11T03:07:12.923Z,57.36
2023-01-11T03:08:13.214Z,65.90
2023-01-11T03:09:13.514Z,56.40
2023-01-11T03:10:13.863Z,51.72
2023-01-11T03:11:14.108Z,50.92
2023-01-11T03:12:14.393Z,48.34
2023-01-11T03:13:14.783Z,50.92
2023-01-11T03:14:14.979Z,53.17
2023-01-11T03:15:15.280Z,64.13
2023-01-11T03:16:15.694Z,58.33
2023-01-11T03:17:15.860Z,52.05
2023-01-11T03:18:16.173Z,52.21
2023-01-11T03:19:16.513Z,52.21
2023-01-11T03:20:16.807Z,59.46
2023-01-11T03:21:17.121Z,70.25
2023-01-11T03:22:17.410Z,78.79
2023-01-11T03:23:17.713Z,51.24
2023-01-11T03:24:17.992Z,54.62
2023-01-11T03:25:18.309Z,51.56
2023-01-11T03:26:18.562Z,58.17
2023-01-11T03:27:18.905Z,58.81
2023-01-11T03:28:19.160Z,56.88
2023-01-11T03:29:19.459Z,61.23
2023-01-11T03:30:19.750Z,65.10
2023-01-11T03:31:20.118Z,75.57
2023-01-11T03:32:20.358Z,64.61
2023-01-11T03:33:20.655Z,57.69
2023-01-11T03:34:20.981Z,54.62
2023-01-11T03:35:21.269Z,57.20
2023-01-11T03:36:21.542Z,53.33
2023-01-11T03:37:21.878Z,71.70
2023-01-11T03:38:22.253Z,55.11
2023-01-11T03:39:22.469Z,54.30
2023-01-11T03:40:22.634Z,59.78
2023-01-11T03:41:22.924Z,58.81
2023-01-11T03:42:23.233Z,56.72
2023-01-11T03:43:23.553Z,52.21
2023-01-11T03:44:23.796Z,65.90
2023-01-11T03:45:24.149Z,53.98
2023-01-11T03:46:24.573Z,56.72
2023-01-11T03:47:24.748Z,54.30
2023-01-11T03:48:25.070Z,57.20
2023-01-11T03:49:25.334Z,58.01
2023-01-11T03:50:25.548Z,60.59
2023-01-11T03:51:25.893Z,56.88
2023-01-11T03:52:26.188Z,53.17
2023-01-11T03:53:26.512Z,53.33
2023-01-11T03:54:26.800Z,56.24
2023-01-11T03:55:27.245Z,54.14
2023-01-11T03:56:27.406Z,54.14
2023-01-11T03:57:27.744Z,53.17
2023-01-11T03:58:28.074Z,54.62
2023-01-11T03:59:28.360Z,55.75
2023-01-11T04:00:28.718Z,55.11
2023-01-11T04:01:28.993Z,55.75
2023-01-11T04:02:29.426Z,49.95
2023-01-11T04:03:29.577Z,50.11
2023-01-11T04:04:29.892Z,51.40
2023-01-11T04:05:30.218Z,56.72
2023-01-11T04:06:30.525Z,57.69
2023-01-11T04:07:30.837Z,56.24
2023-01-11T04:08:31.155Z,52.21
2023-01-11T04:09:31.463Z,49.95
2023-01-11T04:10:31.763Z,50.60
2023-01-11T04:11:32.070Z,59.78
2023-01-11T04:12:32.397Z,59.78
2023-01-11T04:13:33.115Z,56.56
2023-01-11T04:14:33.025Z,52.69
2023-01-11T04:15:33.340Z,50.43
2023-01-11T04:16:33.707Z,55.75
2023-01-11T04:17:33.995Z,53.33
2023-01-11T04:18:34.293Z,56.07
2023-01-11T04:19:34.584Z,59.62
2023-01-11T04:20:34.885Z,52.37
2023-01-11T04:21:35.249Z,54.14
2023-01-11T04:22:35.361Z,72.67
2023-01-11T04:23:35.717Z,52.37
2023-01-11T04:24:35.989Z,60.26
2023-01-11T04:25:36.378Z,54.95
2023-01-11T04:26:36.563Z,66.71
2023-01-11T04:27:37.793Z,57.04
2023-01-11T04:28:38.022Z,70.09
2023-01-11T04:29:37.447Z,56.24
2023-01-11T04:30:37.827Z,55.27
2023-01-11T04:31:38.035Z,56.88
2023-01-11T04:32:38.297Z,58.81
2023-01-11T04:33:38.678Z,57.20
2023-01-11T04:34:38.900Z,59.62
2023-01-11T04:35:39.198Z,66.55
2023-01-11T04:36:39.399Z,60.10
2023-01-11T04:37:39.764Z,60.10
2023-01-11T04:38:40.055Z,58.33
2023-01-11T04:39:40.368Z,53.66
2023-01-11T04:40:40.676Z,52.85
2023-01-11T04:41:41.027Z,52.85
2023-01-11T04:42:41.302Z,58.97
2023-01-11T04:43:41.516Z,57.04
2023-01-11T04:44:41.883Z,57.52
2023-01-11T04:45:42.068Z,54.79
2023-01-11T04:46:42.506Z,56.40
2023-01-11T04:47:42.534Z,58.33
2023-01-11T04:48:42.819Z,61.71
2023-01-11T04:49:43.086Z,63.49
2023-01-11T04:50:43.347Z,77.50
2023-01-11T04:51:43.545Z,52.85
2023-01-11T04:52:43.853Z,57.69
2023-01-11T04:53:44.204Z,56.88
2023-01-11T04:54:44.389Z,77.34
2023-01-11T04:55:44.741Z,57.04
2023-01-11T04:56:44.995Z,57.36
2023-01-11T04:57:45.313Z,54.46
2023-01-11T04:58:45.629Z,68.48
2023-01-11T04:59:45.965Z,57.52
2023-01-11T05:00:46.384Z,53.98
2023-01-11T05:01:46.579Z,64.61
2023-01-11T05:02:46.889Z,60.42
2023-01-11T05:03:47.221Z,57.69
2023-01-11T05:04:47.459Z,57.85
2023-01-11T05:05:47.659Z,54.14
2023-01-11T05:06:48.113Z,60.75
2023-01-11T05:07:48.322Z,75.89
2023-01-11T05:08:48.561Z,58.01
2023-01-11T05:09:48.878Z,62.36
2023-01-11T05:10:49.104Z,55.59
2023-01-11T05:11:49.441Z,63.65
2023-01-11T05:12:49.761Z,61.71
2023-01-11T05:13:50.066Z,59.14
2023-01-11T05:14:50.298Z,80.73
2023-01-11T05:15:50.667Z,59.78
2023-01-11T05:16:50.988Z,59.14
2023-01-11T05:17:51.213Z,65.58
2023-01-11T05:18:51.511Z,58.49
2023-01-11T05:19:51.791Z,67.35
2023-01-11T05:20:52.094Z,59.78
2023-01-11T05:21:52.402Z,60.75
2023-01-11T05:22:52.687Z,58.01
2023-01-11T05:23:53.014Z,56.88
2023-01-11T05:24:53.291Z,59.30
2023-01-11T05:25:53.621Z,55.91
2023-01-11T05:26:53.888Z,60.59
2023-01-11T05:27:54.215Z,61.07
2023-01-11T05:28:54.439Z,58.81
2023-01-11T05:29:54.768Z,56.40
2023-01-11T05:30:55.065Z,62.20
2023-01-11T05:31:55.404Z,60.75
2023-01-11T05:32:55.690Z,61.23
2023-01-11T05:33:55.998Z,73.96
2023-01-11T05:34:56.281Z,70.09
2023-01-11T05:35:56.587Z,71.06
2023-01-11T05:36:56.954Z,58.17
2023-01-11T05:37:57.150Z,61.55
2023-01-11T05:38:57.381Z,63.33
2023-01-11T05:39:57.658Z,74.28
2023-01-11T05:40:57.947Z,59.78
2023-01-11T05:41:58.305Z,61.39
2023-01-11T05:42:58.485Z,61.71
2023-01-11T05:43:58.793Z,60.26
2023-01-11T05:44:59.042Z,63.33
2023-01-11T05:45:59.414Z,60.26
2023-01-11T05:46:59.595Z,77.99
2023-01-11T05:47:59.940Z,73.80
2023-01-11T05:49:00.205Z,66.55
2023-01-11T05:50:00.475Z,73.96
2023-01-11T05:51:01.643Z,60.75
2023-01-11T05:52:01.111Z,62.68
2023-01-11T05:53:01.390Z,73.48
2023-01-11T05:54:01.678Z,57.69
2023-01-11T05:55:01.958Z,61.07
2023-01-11T05:56:02.323Z,58.97
2023-01-11T05:57:02.514Z,59.78
2023-01-11T05:58:02.822Z,56.72
2023-01-11T05:59:03.111Z,60.10
2023-01-11T06:00:03.440Z,64.45
2023-01-11T06:01:03.664Z,60.26
2023-01-11T06:02:03.994Z,74.28
2023-01-11T06:03:04.231Z,61.87
2023-01-11T06:04:04.536Z,61.55
2023-01-11T06:05:04.773Z,60.26
2023-01-11T06:06:05.122Z,59.78
2023-01-11T06:07:05.343Z,73.80
2023-01-11T06:08:05.657Z,58.01
2023-01-11T06:09:05.956Z,57.52
2023-01-11T06:10:06.375Z,61.39
2023-01-11T06:11:06.578Z,58.97
2023-01-11T06:12:06.918Z,56.40
2023-01-11T06:13:07.262Z,60.91
2023-01-11T06:14:07.521Z,62.36
2023-01-11T06:15:07.847Z,65.74
2023-01-11T06:16:08.334Z,73.32
2023-01-11T06:17:08.490Z,63.00
2023-01-11T06:18:08.757Z,62.52
2023-01-11T06:19:09.049Z,66.55
2023-01-11T06:20:09.233Z,73.48
2023-01-11T06:21:09.550Z,71.06
2023-01-11T06:22:09.885Z,61.55
2023-01-11T06:23:10.057Z,71.87
2023-01-11T06:24:10.482Z,70.90
2023-01-11T06:25:10.854Z,61.55
2023-01-11T06:26:11.027Z,59.62
2023-01-11T06:27:11.310Z,67.03
2023-01-11T06:28:11.639Z,62.20
2023-01-11T06:29:11.888Z,70.90
2023-01-11T06:30:12.181Z,71.70
2023-01-11T06:31:12.539Z,66.55
2023-01-11T06:32:12.801Z,64.94
2023-01-11T06:33:13.109Z,59.94
2023-01-11T06:34:13.346Z,61.07
2023-01-11T06:35:13.586Z,67.51
2023-01-11T06:36:13.826Z,61.71
2023-01-11T06:37:14.147Z,59.30
2023-01-11T06:38:14.439Z,61.23
2023-01-11T06:39:14.738Z,62.84
2023-01-11T06:40:15.085Z,62.52
2023-01-11T06:41:15.287Z,62.04
2023-01-11T06:42:15.684Z,69.45
2023-01-11T06:43:15.851Z,68.32
2023-01-11T06:44:16.135Z,69.45
2023-01-11T06:45:16.423Z,75.41
2023-01-11T06:46:16.718Z,95.71
2023-01-11T06:47:16.926Z,71.70
2023-01-11T06:48:17.189Z,72.99
2023-01-11T06:49:17.346Z,67.68
2023-01-11T06:50:17.779Z,64.13
2023-01-11T06:51:18.515Z,66.39
2023-01-11T06:52:18.569Z,73.64
2023-01-11T06:53:18.650Z,73.80
2023-01-11T06:54:18.881Z,76.05
2023-01-11T06:55:19.133Z,76.05
2023-01-11T06:56:19.437Z,58.97
2023-01-11T06:57:19.795Z,60.91
2023-01-11T06:58:20.097Z,60.91
2023-01-11T06:59:20.368Z,76.38
2023-01-11T07:00:20.720Z,60.75
2023-01-11T07:01:20.969Z,61.23
2023-01-11T07:02:21.255Z,73.64
2023-01-11T07:03:21.545Z,63.16
2023-01-11T07:04:21.753Z,65.74
2023-01-11T07:05:22.099Z,64.13
2023-01-11T07:06:22.337Z,64.45
2023-01-11T07:07:22.557Z,63.81
2023-01-11T07:08:22.961Z,66.87
2023-01-11T07:09:23.174Z,68.32
2023-01-11T07:10:23.420Z,70.90
2023-01-11T07:11:23.845Z,58.97
2023-01-11T07:12:24.018Z,62.84
2023-01-11T07:13:24.289Z,66.06
2023-01-11T07:14:24.545Z,63.49
2023-01-11T07:15:25.047Z,61.55
2023-01-11T07:16:25.160Z,58.65
2023-01-11T07:17:25.350Z,55.75
2023-01-11T07:18:25.621Z,60.91
2023-01-11T07:19:25.856Z,61.07
2023-01-11T07:20:26.322Z,71.38
2023-01-11T07:21:26.639Z,72.35
2023-01-11T07:22:26.810Z,60.26
2023-01-11T07:23:28.056Z,61.71
2023-01-11T07:24:27.341Z,64.78
2023-01-11T07:25:27.566Z,73.96
2023-01-11T07:26:27.905Z,60.75
2023-01-11T07:27:28.151Z,62.52
2023-01-11T07:28:28.482Z,65.90
2023-01-11T07:29:28.746Z,63.97
2023-01-11T07:30:29.148Z,61.23
2023-01-11T07:31:29.358Z,58.33
2023-01-11T07:32:29.462Z,74.12
2023-01-11T07:33:29.675Z,63.33
2023-01-11T07:34:29.949Z,60.59
2023-01-11T07:35:30.166Z,66.55
2023-01-11T07:36:30.458Z,64.45
2023-01-11T07:37:30.734Z,58.81
2023-01-11T07:38:31.007Z,60.59
2023-01-11T07:39:42.817Z,60.26
2023-01-11T07:40:32.589Z,76.22
2023-01-11T07:41:31.922Z,62.04
2023-01-11T07:42:32.199Z,74.77
2023-01-11T07:43:32.415Z,76.54
2023-01-11T07:44:32.735Z,69.61
2023-01-11T07:45:44.569Z,60.10
2023-01-11T07:46:34.263Z,60.42
2023-01-11T07:47:33.452Z,60.42
2023-01-11T07:48:33.843Z,62.68
2023-01-11T07:49:34.056Z,60.75
2023-01-11T07:50:34.385Z,72.51
2023-01-11T07:51:34.565Z,60.75
2023-01-11T07:52:34.921Z,58.81
2023-01-11T07:53:35.148Z,63.81
2023-01-11T07:54:35.605Z,63.33
2023-01-11T07:55:35.998Z,62.04
2023-01-11T07:56:36.074Z,58.01
2023-01-11T07:57:36.256Z,74.28
2023-01-11T07:58:36.601Z,61.07
2023-01-11T07:59:36.872Z,66.23
2023-01-11T08:00:37.152Z,65.10
2023-01-11T08:01:37.311Z,61.55
2023-01-11T08:02:37.783Z,65.74
2023-01-11T08:03:38.033Z,65.42
2023-01-11T08:04:38.273Z,71.22
2023-01-11T08:05:38.477Z,58.49
2023-01-11T08:06:38.800Z,67.51
2023-01-11T08:07:39.000Z,56.72
2023-01-11T08:08:39.222Z,72.19
2023-01-11T08:09:39.657Z,68.00
2023-01-11T08:10:41.951Z,57.52
2023-01-11T08:11:40.193Z,63.00
2023-01-11T08:12:40.373Z,66.55
2023-01-11T08:13:40.640Z,59.62
2023-01-11T08:14:40.868Z,61.39
2023-01-11T08:15:41.122Z,58.49
2023-01-11T08:16:41.356Z,58.65
2023-01-11T08:17:41.599Z,61.07
2023-01-11T08:18:41.855Z,70.25
2023-01-11T08:19:42.083Z,65.10
2023-01-11T08:20:42.356Z,63.97
2023-01-11T08:21:42.599Z,69.61
2023-01-11T08:22:43.017Z,64.61
2023-01-11T08:23:43.060Z,65.26
2023-01-11T08:24:43.321Z,67.35
2023-01-11T08:25:43.516Z,63.81
2023-01-11T08:26:44.007Z,72.51
2023-01-11T08:27:44.172Z,77.83
2023-01-11T08:28:44.594Z,58.65
2023-01-11T08:29:44.790Z,68.48
2023-01-11T08:30:45.090Z,77.34
2023-01-11T08:31:45.345Z,66.55
2023-01-11T08:32:45.619Z,68.16
2023-01-11T08:33:45.811Z,64.94
2023-01-11T08:34:46.063Z,67.03
2023-01-11T08:35:46.292Z,75.89
2023-01-11T08:36:46.543Z,78.79
2023-01-11T08:37:46.790Z,73.64
2023-01-11T08:38:47.292Z,68.64
2023-01-11T08:39:47.377Z,63.97
2023-01-11T08:40:47.573Z,78.31
2023-01-11T08:41:47.821Z,64.29
2023-01-11T08:42:48.047Z,72.51
2023-01-11T08:43:48.266Z,74.44
2023-01-11T08:44:48.555Z,72.19
2023-01-11T08:45:48.731Z,62.04
2023-01-11T08:46:49.896Z,66.55
2023-01-11T08:47:49.305Z,76.05
2023-01-11T08:48:49.674Z,62.36
2023-01-11T08:49:49.923Z,61.07
2023-01-11T08:50:50.254Z,64.13
2023-01-11T08:51:50.466Z,75.41
2023-01-11T08:52:50.804Z,69.93
2023-01-11T08:53:50.963Z,69.13
2023-01-11T08:54:51.219Z,61.87
2023-01-11T08:55:51.482Z,60.59
2023-01-11T08:56:51.736Z,58.65
2023-01-11T08:57:51.998Z,58.81
2023-01-11T08:58:52.364Z,70.09
2023-01-11T08:59:52.549Z,70.58
2023-01-11T09:00:52.949Z,80.73
2023-01-11T09:01:53.151Z,56.72
2023-01-11T09:02:53.467Z,65.74
2023-01-11T09:03:53.646Z,63.81
2023-01-11T09:04:53.881Z,56.72
2023-01-11T09:05:54.140Z,68.32
2023-01-11T09:06:54.408Z,73.80
2023-01-11T09:07:54.664Z,64.94
2023-01-11T09:08:54.951Z,61.71
2023-01-11T09:09:55.166Z,66.87
2023-01-11T09:10:55.397Z,64.61
2023-01-11T09:11:55.641Z,59.78
2023-01-11T09:12:55.932Z,63.16
2023-01-11T09:13:56.260Z,75.09
2023-01-11T09:14:56.489Z,61.39
2023-01-11T09:15:56.754Z,63.00
2023-01-11T09:16:57.082Z,66.55
2023-01-11T09:17:57.244Z,70.58
2023-01-11T09:18:57.683Z,77.50
2023-01-11T09:19:57.882Z,72.19
2023-01-11T09:20:58.123Z,72.03
2023-01-11T09:21:58.460Z,67.51
2023-01-11T09:22:58.699Z,76.22
2023-01-11T09:23:59.091Z,74.44
2023-01-11T09:24:59.213Z,75.09
2023-01-11T09:25:59.445Z,74.12
2023-01-11T09:26:59.752Z,75.41
2023-01-11T09:27:59.996Z,74.60
2023-01-11T09:29:00.331Z,77.67
2023-01-11T09:30:00.584Z,77.02
2023-01-11T09:31:00.832Z,78.79
2023-01-11T09:32:01.079Z,75.25
2023-01-11T09:33:01.372Z,68.96
2023-01-11T09:34:01.560Z,72.51
2023-01-11T09:35:01.834Z,70.90
2023-01-11T09:36:02.064Z,74.44
2023-01-11T09:37:02.472Z,87.50
2023-01-11T09:38:02.683Z,72.67
2023-01-11T09:39:02.944Z,86.04
2023-01-11T09:40:03.204Z,71.38
2023-01-11T09:41:03.425Z,72.19
2023-01-11T09:42:03.738Z,70.58
2023-01-11T09:43:03.980Z,73.32
2023-01-11T09:44:04.212Z,75.73
2023-01-11T09:45:04.466Z,72.03
2023-01-11T09:46:06.750Z,75.41
2023-01-11T09:47:05.079Z,75.57
2023-01-11T09:48:05.371Z,67.19
2023-01-11T09:49:05.716Z,69.13
2023-01-11T09:50:05.933Z,69.77
2023-01-11T09:51:06.258Z,61.07
2023-01-11T09:52:06.470Z,61.39
2023-01-11T09:53:06.793Z,71.22
2023-01-11T09:54:07.017Z,74.44
2023-01-11T09:55:07.274Z,64.78
2023-01-11T09:56:07.534Z,72.51
2023-01-11T09:57:07.803Z,58.17
2023-01-11T09:58:08.619Z,65.10
2023-01-11T09:59:08.351Z,70.09
2023-01-11T10:00:08.619Z,71.70
2023-01-11T10:01:08.930Z,79.28
2023-01-11T10:02:09.174Z,67.51
2023-01-11T10:03:09.416Z,70.58
2023-01-11T10:04:09.661Z,76.86
2023-01-11T10:05:10.057Z,65.10
2023-01-11T10:06:10.166Z,64.45
2023-01-11T10:07:10.424Z,70.42
2023-01-11T10:18:25.376Z,67.35
2023-01-11T10:18:29.107Z,72.51
2023-01-11T10:18:33.349Z,72.51
2023-01-11T10:18:37.059Z,78.47
2023-01-11T10:18:38.801Z,66.06
2023-01-11T10:20:15.260Z,72.83
2023-01-11T10:21:14.471Z,70.58
2023-01-11T10:22:14.638Z,70.74
2023-01-11T10:23:15.084Z,73.80
2023-01-11T10:24:15.350Z,62.04
2023-01-11T10:25:15.563Z,64.45
2023-01-11T10:26:15.847Z,66.06
2023-01-11T10:27:16.162Z,71.06
2023-01-11T10:28:16.437Z,63.81
2023-01-11T10:29:16.698Z,76.86
2023-01-11T10:30:16.935Z,75.25
2023-01-11T10:31:17.156Z,67.51
2023-01-11T10:32:17.430Z,64.45
2023-01-11T10:33:17.661Z,67.19
2023-01-11T10:34:17.919Z,80.73
2023-01-11T10:35:18.231Z,73.96
2023-01-11T10:36:18.410Z,59.46
2023-01-11T10:37:18.730Z,74.93
2023-01-11T10:38:18.935Z,80.24
2023-01-11T10:39:19.228Z,77.34
2023-01-11T10:40:19.554Z,63.49
2023-01-11T10:41:19.774Z,70.42
2023-01-11T10:42:20.081Z,63.97
2023-01-11T10:43:20.276Z,59.94
2023-01-11T10:44:20.542Z,77.34
2023-01-11T10:45:20.971Z,72.35
2023-01-11T10:46:21.030Z,79.44
2023-01-11T10:47:21.444Z,71.54
2023-01-11T10:48:21.627Z,65.90
2023-01-11T10:49:22.019Z,76.38
2023-01-11T10:50:22.297Z,77.99
2023-01-11T10:51:22.575Z,79.92
2023-01-11T10:52:22.813Z,68.32
2023-01-11T10:53:24.861Z,61.55
2023-01-11T10:54:23.398Z,72.67
2023-01-11T10:55:23.617Z,68.80
2023-01-11T10:56:23.852Z,64.94
2023-01-11T10:57:24.230Z,76.70
2023-01-11T10:58:24.455Z,60.75
2023-01-11T10:59:24.757Z,73.48
2023-01-11T11:00:25.035Z,76.22
2023-01-11T11:01:25.418Z,64.61
2023-01-11T11:02:26.334Z,72.99
2023-01-11T11:03:26.016Z,63.33
2023-01-11T11:04:26.325Z,74.12
2023-01-11T11:05:26.559Z,70.58
2023-01-11T11:06:26.784Z,77.99
2023-01-11T11:07:27.570Z,80.73
2023-01-11T11:08:27.359Z,79.92
2023-01-11T11:09:27.725Z,73.32
2023-01-11T11:10:27.957Z,63.97
2023-01-11T11:11:28.250Z,72.67
2023-01-11T11:12:28.479Z,80.41
2023-01-11T11:13:28.738Z,65.10
2023-01-11T11:14:28.991Z,65.26
2023-01-11T11:15:29.259Z,65.58
2023-01-11T11:16:29.522Z,68.80
2023-01-11T11:17:29.814Z,70.09
2023-01-11T11:18:30.510Z,69.45
2023-01-11T11:19:30.349Z,76.86
2023-01-11T11:20:30.603Z,69.77
2023-01-11T11:21:30.867Z,78.47
2023-01-11T11:22:31.114Z,61.55
2023-01-11T11:23:31.400Z,63.65
2023-01-11T11:24:31.755Z,67.51
2023-01-11T11:25:31.990Z,72.51
2023-01-11T11:26:32.235Z,66.71
2023-01-11T11:27:32.475Z,71.38
2023-01-11T11:28:32.748Z,69.93
2023-01-11T11:29:33.345Z,61.87
2023-01-11T11:30:33.328Z,72.83
2023-01-11T11:31:34.030Z,69.13
2023-01-11T11:32:36.419Z,69.13
2023-01-11T11:33:34.277Z,62.68
2023-01-11T11:34:34.560Z,67.51
2023-01-11T11:35:34.791Z,71.38
2023-01-11T11:36:35.057Z,80.24
2023-01-11T11:37:35.313Z,65.10
2023-01-11T11:38:35.891Z,72.83
2023-01-11T11:39:35.853Z,75.73
2023-01-11T11:40:36.062Z,62.84
2023-01-11T11:41:36.290Z,67.51
2023-01-11T11:42:36.938Z,71.06
2023-01-11T11:43:36.859Z,71.06
2023-01-11T11:44:37.060Z,61.71
2023-01-11T11:45:37.408Z,77.83
2023-01-11T11:46:37.621Z,70.42
2023-01-11T11:47:37.923Z,75.09
2023-01-11T11:48:38.139Z,74.28
2023-01-11T11:49:38.625Z,67.35
2023-01-11T11:50:46.150Z,75.41
2023-01-11T11:51:40.137Z,69.29
2023-01-11T11:52:39.434Z,66.87
2023-01-11T11:53:39.745Z,77.34
2023-01-11T11:54:40.396Z,62.84
2023-01-11T11:55:40.398Z,77.67
2023-01-11T11:56:40.600Z,67.84
2023-01-11T11:57:40.878Z,69.77
2023-01-11T11:58:41.103Z,68.00
2023-01-11T11:59:41.375Z,66.87
2023-01-11T12:00:41.673Z,64.13
2023-01-11T12:01:41.982Z,61.87
2023-01-11T12:02:42.181Z,75.09
2023-01-11T12:03:42.452Z,71.54
2023-01-11T12:04:42.761Z,73.64
2023-01-11T12:05:43.041Z,77.50
2023-01-11T12:06:43.479Z,68.16
2023-01-11T12:07:54.277Z,61.87
2023-01-11T12:08:44.802Z,66.71
2023-01-11T12:09:44.108Z,75.89
2023-01-11T12:10:44.421Z,61.39
2023-01-11T12:11:44.666Z,71.06
2023-01-11T12:12:44.972Z,69.61
2023-01-11T12:13:45.227Z,70.90
2023-01-11T12:14:45.459Z,65.74
2023-01-11T12:15:45.859Z,69.29
2023-01-11T12:16:46.173Z,74.93
2023-01-11T12:17:46.405Z,64.45
2023-01-11T12:18:47.230Z,68.80
2023-01-11T12:19:47.026Z,71.70
2023-01-11T12:20:47.231Z,66.06
2023-01-11T12:21:47.601Z,61.23
2023-01-11T12:22:47.829Z,68.96
2023-01-11T12:23:48.162Z,69.13
2023-01-11T12:24:48.352Z,68.32
2023-01-11T12:25:48.599Z,64.13
2023-01-11T12:26:48.972Z,72.19
2023-01-11T12:27:49.123Z,71.38
2023-01-11T12:28:49.408Z,65.58
2023-01-11T12:29:49.826Z,63.33
2023-01-11T12:30:49.906Z,87.33
2023-01-11T12:31:50.181Z,68.96
2023-01-11T12:32:50.846Z,65.10
2023-01-11T12:33:50.733Z,68.64
2023-01-11T12:34:51.025Z,65.58
2023-01-11T12:35:51.240Z,77.34
2023-01-11T12:36:51.592Z,65.74
2023-01-11T12:37:51.793Z,65.10
2023-01-11T12:38:52.025Z,67.51
2023-01-11T12:39:52.362Z,60.91
2023-01-11T12:40:52.570Z,61.55
2023-01-11T12:41:52.873Z,60.75
2023-01-11T12:42:53.103Z,61.87
2023-01-11T12:43:53.389Z,64.45
2023-01-11T12:44:53.670Z,58.17
2023-01-11T12:45:53.981Z,60.91
2023-01-11T12:46:54.238Z,65.26
2023-01-11T12:47:54.486Z,63.49
2023-01-11T12:48:54.756Z,67.84
2023-01-11T12:49:55.823Z,66.23
2023-01-11T12:50:55.566Z,68.96
2023-01-11T12:51:55.711Z,61.39
2023-01-11T12:52:55.964Z,67.51
2023-01-11T12:53:56.319Z,68.32
2023-01-11T12:54:56.526Z,63.33
2023-01-11T12:55:56.827Z,61.07
2023-01-11T12:56:57.171Z,78.31
2023-01-11T12:57:57.417Z,75.09
2023-01-11T12:58:57.740Z,59.94
2023-01-11T12:59:58.124Z,68.64
2023-01-11T13:00:58.418Z,61.71
2023-01-11T13:01:58.651Z,71.38
2023-01-11T13:02:58.941Z,61.55